ACT        NSW        VIC        QLD        SA        WA        TAS        NT        INFO        CALC            by VK5ZD

Past Date/Time: (dd/mm/yyyy hh:mm or blank for current data)    

  Atmospheric Gas Attenuation - ITU Rec 676-11   --------------- dB/100km ---------------
WA Stations Date Time Temp RH % AH g/m3 Dew Point Wind Direction Speed kph Gust kph Barometer mB Rainfall Since 9am 24GHz 47GHz 76GHz 122GHz 134GHz 241GHz
Albany Airport 09/05 23:30 12.9 85 9.58 10.4 9 17 1028.2 0 21.7 28.4 45.0 118.2 114.3 393.7
Badgingarra 09/05 23:30 13.1 43 4.91 0.8 17 20 1013.1 0 11.8 20.5 26.2 68.2 53.4 180.6
Barimunya 09/05 23:30 16.8 23 3.29 -4.4 22 30 1020 0 8.3 17.8 20.1 51.7 34.1 112.8
Barrow Island 09/05 23:30 18.2 60 9.33 10.3 6 7 1017.6 0 20.9 25.9 40.7 106.7 102.6 353.6
Bedout Island 09/05 23:30 24.9 41 9.38 10.8 39 50 1015.9 0 20.7 24.1 37.5 98.5 94.7 326.9
Bickley 09/05 23:30 11.3 58 5.92 3.3 20 30 1013.1 0 14.0 22.4 30.5 79.6 66.8 227.4
Boolgeeda 09/05 23:30 16.6 22 3.11 -5.2 11 15 1019.1 0 7.9 17.6 19.6 50.3 32.3 106.5
Bridgetown 09/05 23:30 4.4 96 6.27 3.8 0 0 1026.8 0 15.0 25.3 35.3 92.1 78.7 267.9
Broome 09/05 23:30 23.3 48 10.04 11.7 19 28 1015.1 0 22.2 25.5 40.7 106.9 104.5 361.1
Bunbury 09/05 23:30 8.5 92 7.86 7.3 2 4 1025.6 0 18.2 26.7 40.0 104.7 96.0 329.3
Busselton Airport 09/05 23:30 9.8 69 6.4 4.4 11 13 1025.5 0 15.1 23.9 33.4 87.2 75.0 255.8
Cape Leeuwin 09/05 23:30 14.5 56 6.97 5.8 22 26 1025.3 0 16.1 23.6 33.7 87.9 77.6 265.7
Cape Naturaliste 09/05 23:30 16.7 68 9.66 10.8 24 35 1025 0 21.7 27.2 43.1 113.1 109.6 377.8
Carnarvon 09/05 23:30 15.7 36 4.82 0.7 15 15 1020.1 0 11.5 20.0 25.4 65.8 51.1 172.5
Christmas Creek 09/05 23:30 15.1 25 3.23 -4.8 9 11 1020.6 0 8.2 18.0 20.4 52.3 34.2 113.0
Christmas Island 09/05 23:30 25.6 91 21.66 24 13 22 1011.7 0 46.6 44.9 89.4 236.6 264.8 920.0
Cocos Island 09/05 23:30 28.2 85 23.37 25.4 20 30 1011.1 0.2 49.9 46.8 94.7 250.8 283.0 983.5
Collie East 09/05 23:30 4.4 91 5.95 3.1 0 0 1013.1 0 14.3 24.2 33.4 87.2 73.4 249.5
Coondewanna 09/05 23:30 13.5 23 2.69 -7.2 13 15 1020.1 0 7.1 17.6 19.0 48.7 29.1 95.0
Cunderdin Airport 09/05 23:30 7.8 74 6.04 3.5 7 7 1026.6 0 14.4 23.9 32.9 85.7 72.3 245.9
Curtin 09/05 23:30 21 45 8.24 8.6 15 20 1013.6 0 18.5 23.4 35.1 92.0 85.5 294.3
Dalwallinu 09/05 23:30 9.8 55 5.1 1.2 7 9 1025.2 0 12.3 21.9 28.5 73.9 58.6 198.3
Dwellingup 09/05 23:30 8.5 75 6.41 4.3 17 20 1026.3 0 15.1 24.3 34.0 88.8 76.4 260.6
Eliwana Airport 09/05 23:30 16.3 21 2.91 -6 9 11 1013.1 0 7.5 17.2 18.9 48.5 30.2 99.1
Esperance 09/05 23:30 14 85 10.25 11.5 11 17 1030.9 0 23.1 29.3 47.4 124.4 122.2 421.7
Esperance Airport 09/05 23:30 13.3 88 10.17 11.4 11 15 1030.7 0 22.9 29.4 47.4 124.6 122.2 421.5
Eucla 09/05 23:30 15.8 76 10.23 11.6 9 13 1029.7 0.4 22.9 28.6 46.2 121.2 119.0 410.7
Fitzroy Crossing 09/05 23:30 18.8 51 8.21 8.5 1015 0 18.5 24.0 36.0 94.4 87.7 301.5
Forrest 09/05 23:30 13.5 90 10.53 11.9 13 17 1029.3 0 23.7 29.9 48.8 128.3 126.9 437.9
Fortescue Dave Forrest 09/05 23:30 14.3 29 3.56 -3.5 11 15 1020.1 0 8.9 18.6 21.6 55.7 38.0 126.4
Garden Island 09/05 23:30 15.7 58 7.76 7.5 15 20 1025.5 0 17.7 24.5 36.1 94.5 86.3 296.1
Geraldton Airport 09/05 23:30 16.3 30 4.16 -1.3 7 13 1023 0 10.1 19.1 23.1 59.7 43.6 146.3
Gerangamete (Cfa) 10/05 01:20 9.8 99 9.19 9.7 4 6 1013.1 0 21.1 28.1 44.4 116.7 112.0 385.4
Giles* 10/05 01:10 14.1 38 4.61 0 15 17 1022.7 0 11.1 20.2 25.2 65.4 49.8 167.9
Gingin Airport 09/05 23:30 8.1 62 5.16 1.3 9 11 1025.4 0 12.5 22.4 29.3 76.1 60.6 205.2
Golden Grove 09/05 23:30 11 46 4.61 -0.2 11 13 1024.6 0 11.2 20.9 26.3 68.1 51.9 174.7
Gooseberry Hill 09/05 23:30 15.2 44 5.71 3 28 35 1013.1 0 13.4 21.1 28.3 73.9 61.2 208.1
Gudai-Darri Mine 09/05 23:30 17.7 22 3.32 -4.3 20 30 1013.1 0 8.3 17.4 19.8 51.0 33.8 112.0
Halls Creek 10/05 01:10 17.3 55 8.1 8.2 7 7 1015.9 0 18.4 24.2 36.3 95.1 88.0 302.6
Hopetoun North 09/05 23:30 10.7 98 9.63 10.4 7 9 1029.3 0.2 21.9 29.2 46.6 122.3 118.4 407.9
Iron Bridge Mine 09/05 23:30 16.6 27 3.81 -2.5 13 15 1018.1 0 9.4 18.4 21.7 56.1 39.5 132.0
Jacup 09/05 23:30 10.6 80 7.81 7.3 19 26 1028.4 0 18.0 26.1 38.8 101.7 93.0 319.0
Jandakot 09/05 23:30 8 73 6.04 3.5 9 9 1025.6 0 14.4 23.8 32.8 85.4 72.0 245.1
Kalgoorlie-Boulder 09/05 23:30 10.3 74 7.09 5.9 9 11 1028.6 0 16.5 25.0 36.1 94.2 83.7 286.4
Kalumburu 10/05 01:10 18 93 14.28 16.9 0 0 1013.5 0 31.5 34.3 61.6 162.5 171.4 593.8
Karijini North 09/05 23:30 19.1 20 3.28 -4.4 20 35 1019.5 0 8.2 17.3 19.5 50.2 33.0 109.4
Karnet 09/05 15:00 20.5 27 4.8 0.9 7 1013.1 0 11.3 18.8 23.7 61.4 47.6 161.1
Karratha 09/05 23:30 22.3 19 3.75 -2.4 20 28 1017.3 0 9.1 17.3 20.1 51.9 36.3 121.2
Katanning Rs 09/05 23:30 9.4 70 6.33 4.2 4 6 1027.7 0 14.9 24.0 33.4 87.1 74.6 254.3
Koolan Island / Koolan Central 09/05 23:30 25.1 53 12.27 15.1 13 17 1013.1 0 26.7 28.3 48.1 126.7 129.5 448.8
Kununurra Airport 10/05 01:10 22.1 51 9.95 11.5 9 9 1014.7 0 22.0 25.7 40.9 107.5 105.0 362.6
Lake Grace 09/05 23:30 12.1 64 6.86 5.5 13 20 1027.8 0 15.9 24.1 34.3 89.6 78.8 269.4
Lancelin (Defence) 09/05 23:30 13.9 44 5.28 1.9 11 15 1024 0 12.5 21.2 27.7 71.9 57.7 195.7
Laverton 09/05 23:30 11.9 67 7.1 6 19 26 1027 0 16.5 24.5 35.3 92.3 82.0 280.7
Learmonth 09/05 23:30 16.1 55 7.54 7.1 13 15 1018.6 0 17.2 23.8 34.8 91.2 82.6 283.4
Legendre Island 09/05 23:30 23.3 36 7.53 7.4 28 33 1017 0 16.9 21.9 31.8 83.2 75.3 258.6
Leinster 09/05 23:30 11.2 55 5.58 2.5 7 11 1024.9 0 13.3 22.3 29.7 77.3 63.4 215.3
Leonora Airport 09/05 23:30 11.9 61 6.46 4.6 9 13 1026.9 0 15.1 23.5 32.9 85.7 73.9 252.1
Lombadina 09/05 23:30 22.7 46 9.29 10.5 9 17 1014.3 0 20.6 24.5 38.2 100.2 96.1 331.7
Mandora 09/05 23:30 19.9 37 6.36 4.8 11 15 1016.1 0 14.6 21.1 29.1 75.8 65.1 222.3
Mandurah 09/05 23:30 16 44 5.99 3.8 9 17 1025.4 0 14.0 21.8 29.5 76.8 64.5 219.7
Manjimup 09/05 23:30 11.7 60 6.28 4.2 9 15 1026.5 0 14.7 23.3 32.2 84.0 71.8 244.7
Marble Bar 09/05 23:30 20.4 25 4.42 -0.3 15 19 1018.1 0 10.5 18.5 22.7 58.6 44.0 148.1
Mardie 09/05 23:30 18.8 48 7.73 7.6 9 11 1018 0 17.5 23.4 34.4 90.0 82.1 281.9
Meekatharra 09/05 23:30 12.4 35 3.82 -2.6 11 15 1023.5 0 9.5 19.5 23.1 59.5 41.9 139.9
Millendon (Swan Valley) 09/05 23:30 10.1 64 6.05 3.6 4 6 1025.5 0 14.3 23.3 31.9 83.2 70.2 239.1
Morawa Airport 09/05 23:30 10.9 46 4.58 -0.2 11 13 1024.6 0 11.2 20.9 26.2 67.9 51.6 173.7
Mount Keith 09/05 23:30 10.6 52 5.08 1.2 13 17 1025.1 0 12.2 21.7 28.1 73.0 57.8 195.4
Mount Magnet Airport 09/05 23:30 12.2 42 4.53 -0.3 13 15 1024.2 0 11.0 20.5 25.6 66.3 50.1 168.8
Munglinup West 09/05 23:30 11.3 95 9.69 10.5 17 24 1029.6 0 22.0 29.1 46.5 122.1 118.4 407.9
Newdegate 09/05 23:30 6.5 83 6.23 3.8 9 13 1028.1 0 14.8 24.7 34.2 89.3 76.1 259.2
Newman Airport 09/05 23:30 11.6 28 2.91 -6.3 11 11 1021.3 0 7.6 18.3 20.2 51.8 32.2 105.6
Norseman Airport 09/05 23:30 8.3 80 6.75 5.1 0 0 1029.4 0 15.9 25.1 35.6 93.0 81.4 277.9
North Island 09/05 23:30 21.1 46 8.47 9 24 30 1021.9 0 19.0 24.0 36.2 94.9 88.8 305.6
Onslow Airport 09/05 23:30 20.7 35 6.3 4.7 24 28 1018.4 0 14.4 20.9 28.7 74.7 63.9 218.3
Paraburdoo 09/05 23:30 18.2 17 2.64 -7.2 19 24 1019.5 0 6.9 16.7 17.8 45.6 27.0 88.0
Pearce 09/05 23:30 13.6 47 5.53 2.5 7 11 1025.2 0 13.1 21.7 28.7 74.6 60.9 207.0
Perth 09/05 23:30 9.4 72 6.51 4.6 0 0 1025.7 0 15.3 24.2 34.0 88.8 76.8 262.1
Perth Airport 09/05 23:30 13.3 50 5.78 3.1 13 13 1025.6 0 13.6 22.1 29.7 77.3 64.2 218.3
Port Hedland 09/05 23:30 16.7 34 4.83 0.8 15 17 1017 0 11.5 19.7 25.0 64.9 50.4 170.4
Portable Btsa (Dfes) 09/05 23:20 16.9 30 4.31 -0.5 0 0 1013.1 0 10.4 18.9 23.1 59.9 44.5 149.6
Portable Btsb (Dfes) 09/05 23:20 13.1 48 5.48 2.5 6 9 1013.1 0 13.0 21.3 28.3 73.6 60.1 204.0
Portable Btsd (Dfes) 09/05 23:20 9.4 75 6.79 5.3 13 15 1013.1 0 15.9 24.2 34.6 90.6 79.6 272.1
Portable Btsf (Dfes) 09/05 23:00 14 36 4.34 -0.9 17 20 1013.1 0 10.5 19.5 24.0 62.3 46.4 156.1
Portable Btsh (Dfes) 09/05 23:20 11.7 100 10.46 11.7 2 2 1013.1 0.6 23.7 29.7 48.8 128.5 127.3 439.1
Portable Btsj (Dfes) 09/05 23:20 8.4 78 6.62 4.8 2 4 1013.1 0 15.6 24.2 34.4 89.9 78.4 267.7
Portable Btsk (Dfes) 09/05 23:20 16.9 36 5.18 1.9 6 6 1013.1 0 12.2 20.0 26.0 67.5 53.9 182.9
Portable Btsl (Dfes) 09/05 23:20 12.9 92 10.37 11.7 7 11 1013.1 0 23.4 29.1 47.7 125.5 124.0 427.8
Portable Btsm (Dfes) 09/05 23:20 13.4 30 3.49 -3.5 0 2 1013.1 0 8.8 18.5 21.4 55.2 37.4 124.3
Portable Btsn (Dfes) 09/05 23:20 13.2 44 5.05 1.3 9 9 1013.1 0 12.1 20.7 26.7 69.4 55.0 186.1
Portable Btso (Dfes) 09/05 23:20 5.4 86 6 3.2 0 0 1013.1 0 14.4 24.0 33.1 86.6 73.1 248.7
Red Rocks Point 09/05 23:30 17.1 74 10.77 12.4 22 28 1030.1 1 24.0 29.1 47.7 125.3 124.4 429.8
Rocky Gully South 09/05 23:30 11.5 75 7.75 7.2 17 22 1013.1 0 17.9 25.2 37.5 98.3 90.0 308.6
Roebourne Airport 09/05 23:30 18.5 26 4.11 -1.3 15 17 1017.8 0 9.9 18.4 22.2 57.3 41.7 140.0
Rottnest Island 09/05 23:30 18.2 47 7.3 6.7 22 28 1024.8 0 16.6 23.1 33.3 87.1 78.0 267.4
Salmon Gums Rs 09/05 23:30 4.7 95 6.33 4 0 0 1013.1 0 15.1 24.7 34.8 91.0 78.3 266.7
Shannon 09/05 23:30 10.7 73 7.17 6.1 13 17 1013.1 0 16.7 24.5 35.6 93.1 83.2 284.9
Shark Bay Airport 09/05 23:30 14.4 59 7.29 6.5 17 19 1020.4 0 16.8 23.9 34.7 90.8 81.4 278.9
Solomon Airport 09/05 23:30 13 28 3.18 -5.1 0 4 1018.7 0 8.1 18.3 20.6 53.1 34.5 113.7
Southern Cross Airport 09/05 23:30 12.1 65 6.97 5.7 19 24 1028.1 0 16.2 24.3 34.8 90.8 80.2 274.4
Swanbourne 09/05 23:30 13.6 59 6.94 5.7 13 15 1013.1 0 16.1 23.3 33.4 87.4 77.3 264.6
Telfer 09/05 23:30 16.3 31 4.3 -0.8 19 24 1018.7 0 10.4 19.1 23.4 60.6 44.9 151.0
Thevenard Island 09/05 23:30 24.4 28 6.23 4.7 26 32 1018.3 0 14.2 20.0 27.2 70.8 60.3 206.1
Troughton Island 10/05 01:10 27.1 64 16.56 19.9 28 32 1013.2 0 35.6 34.7 64.2 169.8 183.1 636.0
Truscott 09/05 18:34 27.2 56 14.57 17.9 6 7 1011.5 0 31.4 31.2 55.8 147.2 155.5 539.7
Walpole North 09/05 23:30 12.5 68 7.48 6.8 15 22 1026.4 0 17.2 25.0 36.5 95.5 86.3 295.7
Wandering 09/05 23:30 4.4 81 5.29 1.4 0 0 1013.1 0 12.9 23.1 30.7 80.1 64.6 218.6
Warburton 10/05 01:10 13.7 46 5.45 2.3 20 24 1023.8 0 12.9 21.5 28.3 73.6 59.8 203.1
West Angelas 09/05 23:30 13.9 23 2.76 -6.9 11 15 1019.3 0 7.2 17.6 19.1 49.0 29.7 97.0
West Musgrave Airport 09/05 23:30 14.3 49 6.02 3.7 9 15 1013.1 0 14.1 21.8 29.8 77.6 65.5 223.3
Wiluna Airport 09/05 23:30 11.7 42 4.39 -0.8 13 15 1024 0 10.7 20.4 25.2 65.4 48.8 164.1
Witchcliffe West 09/05 23:30 7 99 7.67 6.9 9 13 1025.3 0 17.9 26.8 39.9 104.5 95.2 326.3
Wyndham Airport 10/05 01:10 19.6 61 10.3 11.9 0 0 1014.1 0 22.9 26.9 43.6 114.5 112.8 389.7
Yampi Sound (Defence) 09/05 22:20 18.2 85 13.21 15.6 4 4 1013.1 0 29.2 32.3 56.6 149.2 155.1 537.1

Last Refresh: 10-May-2026 01:19:02

Bureau of Meteorology